Time;durP1;ratioP1;P1;durP2;ratioP2;P2;SDS_P1;SDS_P2;PMS_P1;PMS_P2;Temp;Humidity;BMP_temperature;BMP_pressure;BME280_temperature;BME280_humidity;BME280_pressure;Samples;Min_cycle;Max_cycle;Signal;HPM_P1;HPM_P2
2021/01/29 00:02:24;;;;;;;1.47;0.80;;;;;;;6.49;86.24;94407.25;4977614;28;20242;-74
2021/01/29 00:04:49;;;;;;;1.80;0.70;;;;;;;6.42;85.89;94401.06;4994594;28;20214;-74
2021/01/29 00:07:15;;;;;;;0.90;0.70;;;;;;;6.39;86.26;94388.50;4977503;28;20573;-74
2021/01/29 00:09:40;;;;;;;1.57;0.80;;;;;;;6.45;85.82;94387.91;4994722;28;20672;-73
2021/01/29 00:12:06;;;;;;;1.37;0.80;;;;;;;6.38;86.06;94386.06;4961314;28;20191;-74
2021/01/29 00:14:31;;;;;;;1.97;0.70;;;;;;;6.37;86.30;94385.25;4977078;28;20185;-74
2021/01/29 00:16:57;;;;;;;1.97;0.70;;;;;;;6.32;86.59;94396.97;4994588;28;20242;-74
2021/01/29 00:19:22;;;;;;;1.37;0.63;;;;;;;6.33;86.48;94386.50;4977378;28;20195;-73
2021/01/29 00:21:47;;;;;;;1.20;0.70;;;;;;;6.40;86.36;94384.13;4977358;28;20184;-73
2021/01/29 00:24:13;;;;;;;1.10;0.80;;;;;;;6.46;86.27;94374.03;4976906;28;20200;-74
2021/01/29 00:26:38;;;;;;;1.50;0.57;;;;;;;6.37;86.37;94374.94;4977027;28;20235;-74
2021/01/29 00:29:03;;;;;;;0.60;0.60;;;;;;;6.49;86.38;94373.72;4994202;28;20813;-74
2021/01/29 00:31:29;;;;;;;4.60;1.80;;;;;;;6.48;86.42;94364.38;4977111;28;20187;-73
2021/01/29 00:33:54;;;;;;;3.43;2.10;;;;;;;6.51;86.40;94361.47;4976980;28;20555;-74
2021/01/29 00:36:19;;;;;;;2.87;1.83;;;;;;;6.50;86.37;94365.03;4976641;28;20204;-73
2021/01/29 00:38:45;;;;;;;5.63;3.43;;;;;;;6.51;86.60;94365.84;4976890;28;20176;-74
2021/01/29 00:41:10;;;;;;;4.37;2.17;;;;;;;6.55;86.49;94362.00;4976876;28;20242;-74
2021/01/29 00:43:35;;;;;;;1.70;0.90;;;;;;;6.59;86.45;94353.00;4976878;28;20594;-74
2021/01/29 00:46:01;;;;;;;1.43;1.10;;;;;;;6.57;86.62;94348.94;4976537;28;20281;-73
2021/01/29 00:48:26;;;;;;;3.53;1.00;;;;;;;6.58;86.79;94348.00;4976725;28;20188;-74
2021/01/29 00:50:51;;;;;;;1.50;0.90;;;;;;;6.61;87.04;94345.91;4960398;28;20222;-74
2021/01/29 00:53:16;;;;;;;1.67;1.13;;;;;;;6.61;87.14;94345.09;4976656;28;20271;-73
2021/01/29 00:55:42;;;;;;;5.93;4.50;;;;;;;6.52;87.00;94333.91;4976415;28;20227;-74
2021/01/29 00:58:07;;;;;;;4.27;1.90;;;;;;;6.44;87.68;94321.78;4994071;28;20226;-74
2021/01/29 01:00:32;;;;;;;1.13;1.03;;;;;;;6.44;87.73;94319.19;4993192;28;20180;-74
2021/01/29 01:02:58;;;;;;;2.63;0.87;;;;;;;6.44;88.26;94308.09;4976439;28;20216;-74
2021/01/29 01:05:25;;;;;;;2.53;0.80;;;;;;;6.38;88.07;94312.09;4993325;28;20199;-74
2021/01/29 01:07:50;;;;;;;0.90;0.70;;;;;;;6.45;87.80;94299.41;4976209;28;20217;-74
2021/01/29 01:10:18;;;;;;;2.50;0.57;;;;;;;6.42;87.85;94295.34;4976416;28;20271;-74
2021/01/29 01:12:44;;;;;;;1.60;0.60;;;;;;;6.37;88.04;94284.69;4976515;28;20231;-74
2021/01/29 01:15:16;;;;;;;3.80;0.80;;;;;;;6.33;88.12;94285.13;4993454;28;20180;-74
2021/01/29 01:17:42;;;;;;;1.23;0.57;;;;;;;6.29;88.27;94284.66;4976065;28;20563;-73
2021/01/29 01:20:10;;;;;;;1.90;0.90;;;;;;;6.30;88.49;94282.88;4976049;28;20179;-73
2021/01/29 01:22:35;;;;;;;1.90;0.47;;;;;;;6.36;88.04;94270.19;4976011;28;20188;-74
2021/01/29 01:25:00;;;;;;;0.93;0.60;;;;;;;6.35;88.31;94263.38;4975526;28;20215;-74
2021/01/29 01:27:26;;;;;;;0.40;0.40;;;;;;;6.24;88.34;94267.03;4993469;28;20214;-73
2021/01/29 01:29:51;;;;;;;0.40;0.40;;;;;;;6.24;88.41;94253.34;4975633;28;20192;-73
2021/01/29 01:32:16;;;;;;;0.63;0.50;;;;;;;6.23;88.50;94254.31;4959687;28;20188;-73
2021/01/29 01:34:42;;;;;;;0.67;0.60;;;;;;;6.19;88.72;94248.66;4959547;28;20231;-73
2021/01/29 01:37:07;;;;;;;0.97;0.90;;;;;;;6.18;88.88;94238.47;4975845;28;20204;-73
2021/01/29 01:39:32;;;;;;;2.00;0.60;;;;;;;6.12;89.02;94241.69;4975921;28;20250;-73
2021/01/29 01:41:58;;;;;;;0.60;0.60;;;;;;;6.19;88.93;94234.97;4975879;28;20566;-73
2021/01/29 01:44:33;;;;;;;1.30;0.77;;;;;;;6.15;89.02;94231.06;4975395;28;20204;-73
2021/01/29 01:47:22;;;;;;;0.60;0.60;;;;;;;6.16;88.92;94228.31;4975732;28;20199;-73
2021/01/29 01:49:51;;;;;;;0.60;0.60;;;;;;;6.15;89.08;94226.72;4975615;28;20633;-73
2021/01/29 01:52:25;;;;;;;0.67;0.67;;;;;;;6.18;89.25;94217.84;4975738;28;20411;-73
2021/01/29 01:55:15;;;;;;;0.70;0.60;;;;;;;6.16;89.04;94201.75;4959118;28;20198;-73
2021/01/29 01:57:42;;;;;;;1.47;0.70;;;;;;;6.10;89.30;94192.06;4975594;28;20662;-73
2021/01/29 02:00:14;;;;;;;0.90;0.80;;;;;;;6.06;89.46;94190.75;4975467;28;20676;-73
2021/01/29 02:02:44;;;;;;;0.93;0.60;;;;;;;6.08;89.44;94196.53;4975204;28;20687;-73
2021/01/29 02:05:15;;;;;;;0.70;0.70;;;;;;;6.01;89.72;94188.63;4974874;28;20700;-73
2021/01/29 02:07:45;;;;;;;1.70;0.83;;;;;;;6.06;89.62;94173.50;4975267;28;20183;-73
2021/01/29 02:10:11;;;;;;;0.70;0.70;;;;;;;6.05;89.12;94168.50;4975315;28;20188;-73
2021/01/29 02:12:36;;;;;;;0.80;0.80;;;;;;;6.07;89.51;94154.50;4975036;28;20180;-73
2021/01/29 02:15:10;;;;;;;0.40;0.40;;;;;;;6.13;88.92;94166.78;4974878;28;20200;-73
2021/01/29 02:17:46;;;;;;;1.17;0.50;;;;;;;6.11;88.78;94166.13;4974926;28;20203;-74
2021/01/29 02:20:33;;;;;;;0.67;0.30;;;;;;;6.13;88.93;94165.97;4975142;28;20178;-74
2021/01/29 02:23:20;;;;;;;0.87;0.50;;;;;;;6.16;88.78;94155.34;4992482;28;20175;-73
2021/01/29 02:26:00;;;;;;;0.30;0.30;;;;;;;6.22;88.57;94157.31;4974795;28;20263;-73
2021/01/29 02:29:02;;;;;;;0.20;0.20;;;;;;;6.19;88.67;94147.31;4991887;28;20210;-73
2021/01/29 02:32:03;;;;;;;0.50;0.40;;;;;;;6.18;88.88;94148.25;4974910;28;20191;-73
2021/01/29 02:34:48;;;;;;;0.73;0.40;;;;;;;6.19;89.03;94142.16;4992329;28;20530;-73
2021/01/29 02:37:57;;;;;;;0.40;0.30;;;;;;;6.15;89.21;94128.78;4992190;28;20226;-73
2021/01/29 02:40:32;;;;;;;0.30;0.30;;;;;;;6.28;88.71;94115.47;4992184;28;20176;-73
2021/01/29 02:43:19;;;;;;;0.93;0.40;;;;;;;6.36;88.03;94114.66;4974774;28;20201;-73
2021/01/29 02:45:49;;;;;;;1.63;0.43;;;;;;;6.37;87.60;94109.38;4991914;28;20203;-73
2021/01/29 02:48:40;;;;;;;0.70;0.30;;;;;;;6.35;87.58;94102.72;4974805;28;20207;-73
2021/01/29 02:51:07;;;;;;;2.50;0.90;;;;;;;6.32;87.84;94093.53;4969344;28;20591;-73
2021/01/29 02:53:37;;;;;;;0.67;0.50;;;;;;;6.39;87.52;94089.38;4974928;28;20176;-73
2021/01/29 02:56:12;;;;;;;0.33;0.30;;;;;;;6.36;87.52;94079.38;4958410;28;20269;-73
2021/01/29 02:58:55;;;;;;;4.37;1.90;;;;;;;6.35;87.81;94084.69;4974687;28;20179;-74
2021/01/29 03:01:26;;;;;;;4.53;2.97;;;;;;;6.38;87.32;94077.44;4992022;28;20180;-74
2021/01/29 03:04:00;;;;;;;1.87;1.10;;;;;;;6.44;86.58;94074.22;4958554;28;20216;-73
2021/01/29 03:06:47;;;;;;;1.30;0.70;;;;;;;6.51;86.20;94062.31;4974212;28;20686;-74
2021/01/29 03:09:22;;;;;;;1.70;1.07;;;;;;;6.50;86.27;94071.03;4975111;28;20179;-73
2021/01/29 03:11:56;;;;;;;1.27;0.70;;;;;;;6.46;86.18;94064.56;4958525;28;20207;-73
2021/01/29 03:14:33;;;;;;;1.80;0.70;;;;;;;6.53;86.02;94054.41;4974618;28;20188;-73
2021/01/29 03:17:07;;;;;;;1.47;0.60;;;;;;;6.51;85.50;94051.19;4974661;28;20192;-73
2021/01/29 03:19:37;;;;;;;1.83;0.90;;;;;;;6.48;85.85;94060.06;4974638;28;20179;-73
2021/01/29 03:22:06;;;;;;;2.07;1.13;;;;;;;6.53;85.26;94062.94;4974533;28;20199;-73
2021/01/29 03:24:35;;;;;;;0.70;0.50;;;;;;;6.72;83.53;94063.66;4961699;28;20697;-73
2021/01/29 03:27:06;;;;;;;1.13;0.50;;;;;;;6.64;84.31;94056.72;4962070;28;20207;-73
2021/01/29 03:29:38;;;;;;;0.50;0.50;;;;;;;6.58;84.38;94046.22;4977980;28;20176;-73
2021/01/29 03:32:05;;;;;;;2.37;0.40;;;;;;;6.62;84.54;94056.03;4961985;28;20187;-73
2021/01/29 03:34:36;;;;;;;0.57;0.30;;;;;;;6.55;84.66;94043.97;4977829;28;20250;-73
2021/01/29 03:37:33;;;;;;;0.77;0.30;;;;;;;6.52;84.29;94027.00;4961857;28;20211;-73
2021/01/29 03:40:00;;;;;;;0.60;0.20;;;;;;;6.56;83.48;94028.31;4962057;28;20180;-74
2021/01/29 03:42:28;;;;;;;0.57;0.40;;;;;;;6.47;83.37;94018.97;4977714;28;20623;-73
2021/01/29 03:44:59;;;;;;;0.20;0.20;;;;;;;6.41;83.71;94017.00;4961590;28;20207;-73
2021/01/29 03:47:34;;;;;;;1.17;0.40;;;;;;;6.32;84.28;94013.63;4977966;28;20204;-73
2021/01/29 03:50:37;;;;;;;0.93;0.47;;;;;;;6.30;84.19;94002.66;4977728;28;20188;-74
2021/01/29 03:53:08;;;;;;;1.47;0.20;;;;;;;6.23;84.03;94007.66;4934725;29;20197;-73
2021/01/29 03:55:47;;;;;;;1.03;0.30;;;;;;;6.17;84.30;94002.31;4918835;29;20300;-73
2021/01/29 03:58:33;;;;;;;0.30;0.30;;;;;;;6.13;84.54;93996.69;4919078;29;20200;-73
2021/01/29 04:01:39;;;;;;;0.30;0.30;;;;;;;6.05;84.91;93975.25;4934948;29;20193;-73
2021/01/29 04:04:24;;;;;;;0.30;0.30;;;;;;;6.08;84.69;93978.28;4907163;29;20237;-73
2021/01/29 04:07:29;;;;;;;0.30;0.30;;;;;;;6.09;84.48;93961.88;4918771;29;20304;-73
2021/01/29 04:10:01;;;;;;;1.00;0.30;;;;;;;6.08;84.53;93960.25;4933257;29;20222;-73
2021/01/29 04:12:50;;;;;;;0.20;0.20;;;;;;;6.01;84.97;93950.72;4918902;29;20253;-73
2021/01/29 04:15:23;;;;;;;0.23;0.23;;;;;;;5.92;85.28;93945.59;4934301;29;20233;-73
2021/01/29 04:17:56;;;;;;;0.93;0.60;;;;;;;5.90;85.59;93924.31;4918620;29;20233;-74
2021/01/29 04:20:28;;;;;;;0.30;0.30;;;;;;;5.85;85.84;93923.97;4918770;29;20281;-73
2021/01/29 04:22:55;;;;;;;0.20;0.20;;;;;;;5.80;85.95;93908.16;4918603;29;20237;-74
2021/01/29 04:25:31;;;;;;;0.57;0.30;;;;;;;5.73;86.20;93894.31;4918229;29;20181;-74
2021/01/29 04:28:05;;;;;;;0.27;0.27;;;;;;;5.76;86.34;93900.94;4933917;29;20677;-73
2021/01/29 04:30:32;;;;;;;0.30;0.30;;;;;;;5.72;86.34;93887.53;4973729;28;20215;-73
2021/01/29 04:33:11;;;;;;;0.47;0.30;;;;;;;5.61;86.86;93877.56;4977057;28;20180;-73
2021/01/29 04:35:38;;;;;;;0.20;0.20;;;;;;;5.61;86.55;93877.56;4975783;28;20211;-73
2021/01/29 04:38:17;;;;;;;0.70;0.40;;;;;;;5.57;86.98;93868.53;4976951;28;20545;-74
2021/01/29 04:40:53;;;;;;;0.90;0.60;;;;;;;5.63;86.92;93865.31;4976935;28;20180;-73
2021/01/29 04:43:56;;;;;;;1.27;0.40;;;;;;;5.56;87.12;93854.03;4976808;28;20215;-74
2021/01/29 04:46:31;;;;;;;0.40;0.40;;;;;;;5.65;86.91;93847.94;4994005;28;20206;-74
2021/01/29 04:49:08;;;;;;;1.20;0.90;;;;;;;5.69;86.64;93849.25;4994314;28;20608;-73
2021/01/29 04:52:01;;;;;;;1.00;0.87;;;;;;;5.71;86.56;93837.00;4976835;28;20180;-73
2021/01/29 04:54:38;;;;;;;1.20;0.80;;;;;;;5.65;86.79;93838.47;4976425;28;20172;-74
2021/01/29 04:57:41;;;;;;;1.40;1.20;;;;;;;5.65;87.21;93846.19;4993977;28;20202;-73
2021/01/29 05:00:31;;;;;;;2.30;1.50;;;;;;;5.72;87.16;93843.75;4994043;28;20254;-73
2021/01/29 05:03:15;;;;;;;0.50;0.50;;;;;;;5.69;87.29;93841.50;4976343;28;20191;-73
2021/01/29 05:05:55;;;;;;;1.57;0.50;;;;;;;5.66;87.68;93852.16;4993496;28;20211;-73
2021/01/29 05:08:32;;;;;;;1.50;0.47;;;;;;;5.71;88.24;93837.00;4993908;28;20657;-73
2021/01/29 05:11:25;;;;;;;0.47;0.40;;;;;;;5.69;88.47;93831.22;4993804;28;20342;-73
2021/01/29 05:14:09;;;;;;;0.63;0.53;;;;;;;5.81;88.68;93822.19;4993679;28;20176;-73
2021/01/29 05:16:59;;;;;;;0.40;0.40;;;;;;;5.93;88.52;93813.22;4993456;28;20342;-73
2021/01/29 05:19:49;;;;;;;0.40;0.40;;;;;;;6.03;88.64;93815.63;4976204;28;20176;-73
2021/01/29 05:22:39;;;;;;;0.97;0.50;;;;;;;6.08;88.79;93799.66;4976170;28;20187;-73
2021/01/29 05:25:25;;;;;;;0.50;0.50;;;;;;;6.13;88.69;93782.75;4993393;28;20211;-73
2021/01/29 05:28:19;;;;;;;0.30;0.30;;;;;;;6.09;88.86;93788.41;4992944;28;20505;-73
2021/01/29 05:31:04;;;;;;;0.67;0.50;;;;;;;6.10;88.46;93784.88;4976073;28;20262;-73
2021/01/29 05:33:44;;;;;;;1.53;1.20;;;;;;;6.11;88.44;93773.59;4975963;28;20199;-73
2021/01/29 05:36:24;;;;;;;0.80;0.80;;;;;;;6.12;87.90;93757.16;4975445;28;20663;-74
2021/01/29 05:38:53;;;;;;;2.37;1.30;;;;;;;6.19;87.79;93742.66;4975854;28;20203;-73
2021/01/29 05:41:26;;;;;;;0.90;0.90;;;;;;;6.23;87.26;93743.91;4993276;28;20238;-73
2021/01/29 05:44:06;;;;;;;4.20;2.70;;;;;;;6.28;86.92;93746.81;4993071;28;20200;-73
2021/01/29 05:46:53;;;;;;;2.30;1.60;;;;;;;6.35;86.74;93745.16;4958965;28;20208;-73
2021/01/29 05:49:21;;;;;;;0.40;0.40;;;;;;;6.34;87.01;93750.50;4993159;28;20546;-74
2021/01/29 05:52:21;;;;;;;0.93;0.60;;;;;;;6.41;87.12;93749.66;4975653;28;20557;-74
2021/01/29 05:54:52;;;;;;;0.50;0.50;;;;;;;6.62;86.31;93768.94;4940239;28;20195;-71
2021/01/29 05:57:36;;;;;;;0.70;0.70;;;;;;;6.68;86.84;93788.91;4991756;28;20705;-75
2021/01/29 06:00:29;;;;;;;1.03;0.50;;;;;;;6.73;87.35;93791.81;4980442;28;20207;-75
2021/01/29 06:03:20;;;;;;;0.40;0.40;;;;;;;6.74;87.17;93789.06;4957418;28;20210;-75
2021/01/29 06:06:01;;;;;;;0.60;0.60;;;;;;;6.74;87.16;93809.69;4990026;28;20227;-75
2021/01/29 06:08:36;;;;;;;0.30;0.30;;;;;;;6.79;85.78;93817.72;4940860;28;20193;-75
2021/01/29 06:11:19;;;;;;;0.40;0.40;;;;;;;6.73;86.63;93813.25;4981969;28;20246;-74
2021/01/29 06:14:36;;;;;;;0.97;0.50;;;;;;;6.66;86.13;93811.50;4970775;28;20571;-74
2021/01/29 06:17:23;;;;;;;0.30;0.30;;;;;;;6.65;85.87;93815.03;4939880;28;20307;-74
2021/01/29 06:20:23;;;;;;;1.00;0.30;;;;;;;6.56;85.14;93832.31;4981242;28;20176;-74
2021/01/29 06:23:03;;;;;;;0.40;0.40;;;;;;;6.50;84.87;93830.38;4963085;28;20710;-74
2021/01/29 06:26:06;;;;;;;0.30;0.30;;;;;;;6.43;84.90;93834.59;4956381;28;20184;-74
2021/01/29 06:29:08;;;;;;;0.40;0.40;;;;;;;6.34;84.16;93848.47;4972797;28;20607;-74
2021/01/29 06:32:11;;;;;;;2.33;0.83;;;;;;;6.26;84.08;93802.88;4973147;28;20938;-75
2021/01/29 06:34:52;;;;;;;0.80;0.77;;;;;;;6.28;83.72;93818.19;4972471;28;20208;-75
2021/01/29 06:37:29;;;;;;;0.60;0.43;;;;;;;6.18;83.62;93814.03;4989517;28;20559;-74
2021/01/29 06:40:16;;;;;;;0.47;0.40;;;;;;;6.15;83.75;93803.22;4958053;28;20697;-74
2021/01/29 06:43:02;;;;;;;1.03;0.40;;;;;;;6.15;82.85;93818.69;4976151;28;20185;-74
2021/01/29 06:45:45;;;;;;;0.67;0.40;;;;;;;6.11;83.08;93823.38;4985352;28;20216;-74
2021/01/29 06:48:18;;;;;;;0.77;0.50;;;;;;;6.09;83.52;93814.16;4962845;28;20204;-74
2021/01/29 06:51:03;;;;;;;1.20;0.40;;;;;;;6.07;83.57;93811.75;4973731;28;20180;-73
2021/01/29 06:54:06;;;;;;;1.83;0.60;;;;;;;6.01;84.00;93814.16;4961866;28;20548;-74
2021/01/29 06:57:07;;;;;;;1.40;0.30;;;;;;;6.02;83.91;93813.22;4977883;28;20341;-74
2021/01/29 06:59:35;;;;;;;0.40;0.40;;;;;;;6.00;83.64;93797.09;4982457;28;20526;-74
2021/01/29 07:02:15;;;;;;;0.70;0.60;;;;;;;6.05;83.00;93815.47;4994583;28;20264;-74
2021/01/29 07:05:11;;;;;;;0.90;0.40;;;;;;;5.97;83.07;93805.97;4969957;28;20204;-75
2021/01/29 07:07:58;;;;;;;0.40;0.40;;;;;;;5.95;82.39;93818.22;4977343;28;20668;-74
2021/01/29 07:10:45;;;;;;;0.57;0.40;;;;;;;5.96;83.37;93806.94;4964269;28;20570;-73
2021/01/29 07:13:38;;;;;;;1.90;0.70;;;;;;;5.96;82.68;93823.19;4966599;28;20275;-74
2021/01/29 07:16:33;;;;;;;0.30;0.30;;;;;;;5.99;82.59;93816.91;4992299;28;20206;-74
2021/01/29 07:19:24;;;;;;;0.67;0.40;;;;;;;5.97;82.89;93791.31;4967899;28;20184;-74
2021/01/29 07:22:17;;;;;;;1.57;0.50;;;;;;;5.95;83.05;93820.78;4968697;28;20191;-74
2021/01/29 07:24:56;;;;;;;1.33;0.60;;;;;;;5.96;82.88;93820.63;4994889;28;20207;-73
2021/01/29 07:27:35;;;;;;;0.83;0.40;;;;;;;5.90;83.29;93829.00;4976676;28;20211;-73
2021/01/29 07:30:09;;;;;;;0.70;0.50;;;;;;;5.93;82.66;93808.06;4977835;28;20250;-73
2021/01/29 07:32:47;;;;;;;1.20;0.83;;;;;;;6.05;82.25;93833.50;4982898;28;20195;-74
2021/01/29 07:35:30;;;;;;;2.27;0.43;;;;;;;6.02;82.65;93844.94;4973482;28;20176;-73
2021/01/29 07:38:22;;;;;;;0.80;0.60;;;;;;;6.11;82.19;93835.44;4971027;28;20192;-73
2021/01/29 07:41:22;;;;;;;1.70;0.53;;;;;;;6.14;82.22;93835.13;4976351;28;20211;-74
2021/01/29 07:43:53;;;;;;;2.17;0.50;;;;;;;6.19;81.54;93828.50;4924641;28;20250;-75
2021/01/29 07:46:53;;;;;;;0.93;0.50;;;;;;;6.17;82.16;93832.19;4969809;28;20199;-74
2021/01/29 07:49:46;;;;;;;1.77;0.40;;;;;;;6.20;81.82;93814.66;4976658;28;20181;-74
2021/01/29 07:52:39;;;;;;;0.70;0.40;;;;;;;6.22;81.50;93829.94;4982394;28;20180;-74
2021/01/29 07:55:22;;;;;;;1.67;0.70;;;;;;;6.24;81.81;93858.94;4958524;28;20188;-73
2021/01/29 07:57:53;;;;;;;0.40;0.40;;;;;;;6.17;83.12;93850.25;4948041;28;20188;-73
2021/01/29 08:00:34;;;;;;;0.90;0.40;;;;;;;6.10;83.79;93860.41;4961521;28;20238;-73
2021/01/29 08:03:31;;;;;;;2.20;0.40;;;;;;;6.11;84.38;93843.19;4963723;28;20718;-73
2021/01/29 08:06:21;;;;;;;1.13;0.60;;;;;;;6.05;84.80;93857.50;4958828;28;20240;-73
2021/01/29 08:08:58;;;;;;;0.80;0.53;;;;;;;6.02;85.75;93852.69;4968250;28;20183;-73
2021/01/29 08:11:24;;;;;;;2.33;0.60;;;;;;;6.03;85.46;93833.66;4957918;28;20667;-73
2021/01/29 08:13:59;;;;;;;1.30;0.53;;;;;;;6.11;85.41;93856.88;4960881;28;20668;-73
2021/01/29 08:16:43;;;;;;;1.50;0.80;;;;;;;6.17;85.19;93868.28;4976060;28;20207;-73
2021/01/29 08:19:14;;;;;;;1.00;0.80;;;;;;;6.21;85.49;93867.00;4984555;28;20211;-73
2021/01/29 08:22:11;;;;;;;1.10;0.70;;;;;;;6.21;85.26;93885.06;4958131;28;20187;-73
2021/01/29 08:25:05;;;;;;;2.10;0.50;;;;;;;6.23;85.24;93865.88;4985987;28;20691;-74
2021/01/29 08:27:52;;;;;;;0.70;0.70;;;;;;;6.14;84.57;93858.31;4953471;28;20217;-73
2021/01/29 08:31:02;;;;;;;1.63;0.63;;;;;;;6.18;83.33;93885.34;4984708;28;20634;-74
2021/01/29 08:33:59;;;;;;;1.23;1.00;;;;;;;6.24;83.04;93871.81;4983659;28;20671;-74
2021/01/29 08:36:36;;;;;;;2.43;0.80;;;;;;;6.33;82.55;93890.69;4963714;28;20266;-74
2021/01/29 08:39:24;;;;;;;1.67;0.70;;;;;;;6.42;81.36;93902.59;4964269;28;20191;-73
2021/01/29 08:41:57;;;;;;;2.37;0.70;;;;;;;6.51;81.09;93892.09;4971827;28;20183;-74
2021/01/29 08:45:04;;;;;;;1.40;1.10;;;;;;;6.46;81.65;93891.81;4974427;28;20295;-73
2021/01/29 08:47:41;;;;;;;1.40;0.60;;;;;;;6.50;81.11;93900.00;4970201;28;20212;-74
2021/01/29 08:50:19;;;;;;;1.70;0.80;;;;;;;6.50;81.04;93902.59;4982226;28;20188;-73
2021/01/29 08:53:21;;;;;;;2.33;1.00;;;;;;;6.46;81.33;93904.69;4975916;28;20191;-74
2021/01/29 08:56:14;;;;;;;1.47;0.80;;;;;;;6.44;80.47;93916.94;4989690;28;20210;-73
2021/01/29 08:58:59;;;;;;;2.63;1.07;;;;;;;6.50;80.39;93923.22;4977885;28;20215;-74
2021/01/29 09:01:39;;;;;;;1.60;0.73;;;;;;;6.56;79.29;93914.03;4955164;28;20195;-74
2021/01/29 09:04:33;;;;;;;3.13;0.70;;;;;;;6.66;78.86;93919.81;4971612;28;20663;-74
2021/01/29 09:07:02;;;;;;;2.83;0.90;;;;;;;6.78;78.25;93927.06;4980204;28;20212;-74
2021/01/29 09:09:31;;;;;;;1.63;0.80;;;;;;;6.85;76.61;93922.06;4953483;28;20246;-74
2021/01/29 09:11:59;;;;;;;4.37;1.10;;;;;;;6.81;77.21;93928.53;4957727;28;20188;-74
2021/01/29 09:14:35;;;;;;;2.20;0.97;;;;;;;6.76;76.98;93917.88;4956605;28;20184;-74
2021/01/29 09:17:16;;;;;;;3.07;1.03;;;;;;;6.72;76.95;93921.75;4958003;28;20263;-73
2021/01/29 09:19:43;;;;;;;3.73;0.93;;;;;;;6.57;76.96;93937.09;4959386;28;20184;-75
2021/01/29 09:22:22;;;;;;;9.73;2.07;;;;;;;6.58;76.00;93936.13;4971143;28;20175;-74
2021/01/29 09:25:12;;;;;;;4.03;1.17;;;;;;;6.64;76.27;93940.63;4956147;28;20205;-74
2021/01/29 09:27:48;;;;;;;3.50;1.20;;;;;;;6.74;76.79;93943.03;4952318;28;20200;-73
2021/01/29 09:30:21;;;;;;;3.33;1.10;;;;;;;6.66;75.99;93954.16;4963863;28;20715;-73
2021/01/29 09:33:01;;;;;;;2.77;0.80;;;;;;;6.68;76.11;93961.75;4973864;28;20283;-74
2021/01/29 09:35:50;;;;;;;4.33;0.90;;;;;;;6.71;75.54;93953.66;4981457;28;20179;-73
2021/01/29 09:38:19;;;;;;;3.80;1.10;;;;;;;6.65;73.49;93969.81;4971545;28;20262;-74
2021/01/29 09:40:50;;;;;;;5.43;1.10;;;;;;;6.67;74.10;93960.13;4970911;28;20714;-74
2021/01/29 09:43:29;;;;;;;5.97;1.20;;;;;;;6.55;74.84;93969.16;4955624;28;20188;-73
2021/01/29 09:45:55;;;;;;;2.37;0.80;;;;;;;6.69;74.77;93968.50;4961417;28;20232;-74
2021/01/29 09:48:24;;;;;;;5.07;1.13;;;;;;;6.66;75.25;93984.31;4987062;28;20261;-74
2021/01/29 09:51:23;;;;;;;4.60;1.13;;;;;;;6.59;73.69;93985.91;4983097;28;20192;-73
2021/01/29 09:54:01;;;;;;;4.40;1.40;;;;;;;6.62;73.24;93988.16;4976347;28;20266;-74
2021/01/29 09:56:30;;;;;;;3.10;1.00;;;;;;;6.59;73.61;93997.03;4964387;28;20999;-74
2021/01/29 09:59:13;;;;;;;4.77;1.53;;;;;;;6.60;74.04;93974.63;4949466;28;20176;-73
2021/01/29 10:01:42;;;;;;;4.43;1.33;;;;;;;6.57;72.56;93988.66;4981664;28;20184;-74
2021/01/29 10:04:12;;;;;;;5.33;1.50;;;;;;;6.60;72.73;93982.38;4949367;28;20211;-74
2021/01/29 10:06:59;;;;;;;6.03;1.60;;;;;;;6.56;72.65;93968.19;4970897;28;20203;-74
2021/01/29 10:09:34;;;;;;;4.43;1.33;;;;;;;6.56;72.86;93973.34;4981692;28;20184;-73
2021/01/29 10:12:03;;;;;;;5.07;1.63;;;;;;;6.62;72.26;93964.94;4967396;28;20183;-73
2021/01/29 10:14:39;;;;;;;6.67;1.40;;;;;;;6.62;71.38;93945.13;4969602;28;20199;-73
2021/01/29 10:17:27;;;;;;;7.07;1.20;;;;;;;6.61;70.63;93961.56;4956827;28;20206;-73
2021/01/29 10:20:19;;;;;;;5.47;1.40;;;;;;;6.64;70.48;93963.03;4947894;28;20275;-73
2021/01/29 10:23:20;;;;;;;4.90;1.27;;;;;;;6.65;71.07;93969.81;4969775;28;20185;-73
2021/01/29 10:26:22;;;;;;;6.13;1.33;;;;;;;6.68;69.13;93929.00;4967321;28;20223;-73
2021/01/29 10:28:50;;;;;;;3.77;1.20;;;;;;;6.77;70.60;93984.78;4965799;28;20582;-72
2021/01/29 10:31:17;;;;;;;5.93;1.30;;;;;;;6.76;69.61;93961.72;4972273;28;20197;-74
2021/01/29 10:33:46;;;;;;;5.03;1.47;;;;;;;6.76;70.97;93974.63;4980076;28;20176;-73
2021/01/29 10:36:18;;;;;;;6.73;1.40;;;;;;;6.70;70.33;93977.84;4973106;28;20223;-74
2021/01/29 10:38:54;;;;;;;7.30;1.77;;;;;;;6.68;70.99;93975.44;4966599;28;20188;-72
2021/01/29 10:41:30;;;;;;;7.07;1.63;;;;;;;6.71;70.98;93964.78;4956337;28;20246;-73
2021/01/29 10:44:28;;;;;;;4.83;1.40;;;;;;;6.82;70.41;93943.03;4980313;28;20625;-74
2021/01/29 10:47:13;;;;;;;4.73;1.47;;;;;;;6.79;70.45;93954.47;4946560;28;20646;-73
2021/01/29 10:49:49;;;;;;;5.57;1.70;;;;;;;6.75;70.95;93944.66;4976661;28;20185;-73
2021/01/29 10:52:38;;;;;;;4.50;1.47;;;;;;;6.77;70.53;93976.25;4960771;28;20252;-73
2021/01/29 10:55:39;;;;;;;8.03;1.60;;;;;;;6.73;71.41;93965.44;4961502;28;20180;-72
2021/01/29 10:58:24;;;;;;;3.90;1.30;;;;;;;6.74;71.28;93974.81;4976844;28;20254;-72
2021/01/29 11:01:02;;;;;;;4.27;1.43;;;;;;;6.72;71.48;93968.19;4943077;28;20219;-74
2021/01/29 11:03:40;;;;;;;6.33;1.57;;;;;;;6.65;71.88;93980.13;4973369;28;20258;-73
2021/01/29 11:06:08;;;;;;;4.70;1.70;;;;;;;6.59;71.96;93971.25;4991287;28;20274;-74
2021/01/29 11:08:39;;;;;;;5.37;1.93;;;;;;;6.56;71.77;93991.41;4956336;28;20180;-74
2021/01/29 11:11:15;;;;;;;6.67;1.97;;;;;;;6.55;71.42;93998.34;4971418;28;20176;-74
2021/01/29 11:13:50;;;;;;;12.43;2.63;;;;;;;6.51;71.94;93995.25;4942474;28;20192;-74
2021/01/29 11:16:18;;;;;;;7.13;1.67;;;;;;;6.65;71.53;94029.94;4973717;28;20211;-75
2021/01/29 11:18:47;;;;;;;4.93;1.40;;;;;;;6.73;71.16;94003.34;4958451;28;20188;-74
2021/01/29 11:21:26;;;;;;;4.47;1.37;;;;;;;6.73;71.30;94004.16;4955013;28;20657;-73
2021/01/29 11:24:09;;;;;;;5.37;1.40;;;;;;;6.94;70.70;94002.84;4963631;28;20283;-74
2021/01/29 11:26:53;;;;;;;5.47;1.67;;;;;;;6.77;71.53;93999.47;4989742;28;20290;-73
2021/01/29 11:29:31;;;;;;;5.63;1.43;;;;;;;6.61;71.82;93983.97;4976074;28;20551;-73
2021/01/29 11:32:22;;;;;;;5.07;2.30;;;;;;;6.44;72.30;93989.13;4971558;28;20237;-74
2021/01/29 11:34:53;;;;;;;4.83;1.20;;;;;;;6.49;72.63;93991.25;4974884;28;20188;-75
2021/01/29 11:37:31;;;;;;;6.33;1.50;;;;;;;6.64;73.20;93994.00;4967319;28;20207;-75
2021/01/29 11:40:02;;;;;;;6.43;1.73;;;;;;;6.69;72.93;93994.28;4973254;28;20176;-75
2021/01/29 11:42:38;;;;;;;7.23;1.87;;;;;;;6.68;72.26;93985.75;4964637;28;20181;-75
2021/01/29 11:45:17;;;;;;;5.60;1.70;;;;;;;6.63;71.37;93988.03;4967698;28;20210;-75
2021/01/29 11:47:54;;;;;;;6.63;1.47;;;;;;;6.77;71.21;93971.88;4972544;28;20210;-75
2021/01/29 11:50:30;;;;;;;6.53;1.60;;;;;;;6.66;69.21;93974.00;4954218;28;20190;-74
2021/01/29 11:53:04;;;;;;;5.97;1.20;;;;;;;6.66;68.48;93981.72;4974499;28;20180;-75
2021/01/29 11:55:46;;;;;;;5.40;2.10;;;;;;;6.66;68.99;93968.84;4970646;28;20183;-75
2021/01/29 11:58:26;;;;;;;4.93;1.17;;;;;;;6.69;69.02;93986.56;4963297;28;20177;-75
2021/01/29 12:01:03;;;;;;;6.13;1.87;;;;;;;6.72;68.45;93963.03;4943362;28;20790;-74
2021/01/29 12:03:46;;;;;;;7.87;1.67;;;;;;;6.76;69.22;93966.88;4969318;28;20647;-75
2021/01/29 12:06:19;;;;;;;5.90;1.57;;;;;;;6.76;69.02;93962.53;4975534;28;20204;-75
2021/01/29 12:09:19;;;;;;;7.33;1.57;;;;;;;6.92;69.23;93951.41;4993270;28;20180;-75
2021/01/29 12:11:51;;;;;;;5.13;1.17;;;;;;;6.89;69.10;93972.38;4960837;28;20737;-75
2021/01/29 12:14:25;;;;;;;8.83;1.50;;;;;;;7.02;68.75;93967.50;4994395;28;20232;-75
2021/01/29 12:16:57;;;;;;;6.67;1.30;;;;;;;7.09;68.77;93978.78;4975971;28;20200;-75
2021/01/29 12:19:28;;;;;;;12.30;1.73;;;;;;;7.02;69.51;93987.34;4975125;28;20192;-75
2021/01/29 12:22:10;;;;;;;4.17;1.37;;;;;;;7.16;69.83;94006.53;4974674;28;20187;-75
2021/01/29 12:24:39;;;;;;;6.50;1.43;;;;;;;7.02;70.71;94003.63;4994818;28;20281;-75
2021/01/29 12:27:12;;;;;;;6.50;1.30;;;;;;;6.95;71.31;94013.00;4992183;28;20769;-75
2021/01/29 12:30:06;;;;;;;4.97;1.20;;;;;;;6.92;71.69;93997.03;4965104;28;20191;-75
2021/01/29 12:32:41;;;;;;;3.67;1.53;;;;;;;6.88;72.36;93999.13;4971864;28;20712;-74
2021/01/29 12:35:16;;;;;;;4.13;1.13;;;;;;;6.82;73.16;94000.59;4969350;28;20176;-75
2021/01/29 12:38:02;;;;;;;6.27;1.30;;;;;;;6.79;72.82;94003.47;4948325;28;20216;-74